Time;durP1;ratioP1;P1;durP2;ratioP2;P2;SDS_P1;SDS_P2;PMS_P1;PMS_P2;Temp;Humidity;BMP_temperature;BMP_pressure;BME280_temperature;BME280_humidity;BME280_pressure;Samples;Min_cycle;Max_cycle;Signal;HPM_P1;HPM_P2
2021/06/07 00:01:49;;;;;;;20.08;16.08;;;18.20;1.00;;;;;;5025938;28;20033;-96
2021/06/07 00:04:16;;;;;;;18.15;14.93;;;18.10;1.00;;;;;;5043857;28;20029;-96
2021/06/07 00:06:42;;;;;;;20.15;16.23;;;18.20;1.00;;;;;;5033590;28;20025;-96
2021/06/07 00:09:12;;;;;;;19.63;16.08;;;18.30;1.00;;;;;;5034985;28;20059;-96
2021/06/07 00:11:46;;;;;;;17.60;15.38;;;18.20;1.00;;;;;;5057920;28;20045;-96
2021/06/07 00:14:12;;;;;;;21.20;15.43;;;18.10;1.00;;;;;;5062130;28;20029;-96
2021/06/07 00:16:38;;;;;;;19.98;15.00;;;18.20;1.00;;;;;;5061814;28;20029;-96
2021/06/07 00:19:09;;;;;;;19.42;16.10;;;18.20;1.00;;;;;;5032078;28;20040;-96
2021/06/07 00:21:36;;;;;;;21.42;16.63;;;18.10;1.00;;;;;;5041646;28;20554;-96
2021/06/07 00:24:03;;;;;;;20.58;16.63;;;18.20;1.00;;;;;;5062801;28;20025;-96
2021/06/07 00:26:28;;;;;;;20.73;16.85;;;18.10;1.00;;;;;;5060686;28;20025;-96
2021/06/07 00:28:54;;;;;;;20.05;16.10;;;18.10;1.00;;;;;;5043538;28;20037;-96
2021/06/07 00:31:21;;;;;;;21.65;16.27;;;18.10;1.00;;;;;;5046971;28;20096;-96
2021/06/07 00:33:47;;;;;;;18.77;15.68;;;18.10;1.00;;;;;;5056605;28;20029;-96
2021/06/07 00:36:23;;;;;;;19.27;15.98;;;18.30;1.00;;;;;;5049538;28;20033;-96
2021/06/07 00:38:50;;;;;;;21.60;17.05;;;18.10;1.00;;;;;;5040633;28;20022;-96
2021/06/07 00:41:17;;;;;;;20.63;16.70;;;18.10;1.00;;;;;;5042762;28;20108;-96
2021/06/07 00:43:43;;;;;;;20.35;16.05;;;18.00;1.00;;;;;;5041514;28;20041;-96
2021/06/07 00:46:09;;;;;;;23.27;18.20;;;18.10;1.00;;;;;;5041889;28;20053;-96
2021/06/07 00:48:38;;;;;;;21.98;16.90;;;17.90;1.00;;;;;;5031563;28;20046;-96
2021/06/07 00:51:07;;;;;;;19.58;16.48;;;18.00;1.00;;;;;;5036101;28;20029;-96
2021/06/07 00:53:35;;;;;;;20.48;16.25;;;18.00;1.00;;;;;;5042525;28;20035;-96
2021/06/07 00:56:04;;;;;;;19.45;15.80;;;18.10;1.00;;;;;;5058104;28;20020;-96
2021/06/07 00:58:40;;;;;;;21.20;16.60;;;18.00;1.00;;;;;;5041632;28;20029;-96
2021/06/07 01:01:10;;;;;;;21.98;16.88;;;17.90;1.00;;;;;;5034228;28;20033;-96
2021/06/07 01:03:38;;;;;;;23.08;17.75;;;18.00;1.00;;;;;;5041144;28;20059;-96
2021/06/07 01:06:05;;;;;;;21.52;16.85;;;18.10;1.00;;;;;;5029206;28;20045;-96
2021/06/07 01:08:31;;;;;;;20.42;16.25;;;18.00;1.00;;;;;;5013180;28;20041;-96
2021/06/07 01:10:57;;;;;;;20.92;16.23;;;18.10;1.00;;;;;;5041251;28;20055;-96
2021/06/07 01:13:24;;;;;;;21.23;16.10;;;18.20;1.00;;;;;;5043976;28;20037;-96
2021/06/07 01:15:53;;;;;;;22.80;16.77;;;18.20;1.00;;;;;;5024873;28;20041;-96
2021/06/07 01:18:20;;;;;;;19.10;15.82;;;18.10;1.00;;;;;;5036269;28;20025;-96
2021/06/07 01:20:47;;;;;;;24.00;15.85;;;18.10;1.00;;;;;;5034562;28;20104;-96
2021/06/07 01:23:13;;;;;;;20.23;15.43;;;18.00;1.00;;;;;;5043942;28;20032;-96
2021/06/07 01:25:41;;;;;;;19.58;15.57;;;17.90;1.00;;;;;;5057855;28;20025;-96
2021/06/07 01:28:11;;;;;;;21.27;16.40;;;18.00;1.00;;;;;;5052030;28;20044;-96
2021/06/07 01:30:40;;;;;;;19.10;15.10;;;17.90;1.00;;;;;;5044376;28;20056;-96
2021/06/07 01:33:09;;;;;;;23.35;16.35;;;17.90;1.00;;;;;;5034074;28;20492;-96
2021/06/07 01:35:36;;;;;;;19.33;15.55;;;17.90;1.00;;;;;;5035653;28;20029;-96
2021/06/07 01:38:03;;;;;;;20.00;15.60;;;18.00;1.00;;;;;;5024436;28;20036;-96
2021/06/07 01:40:33;;;;;;;18.27;15.07;;;18.00;1.00;;;;;;5058013;28;20075;-96
2021/06/07 01:43:00;;;;;;;20.63;15.30;;;17.90;1.00;;;;;;5033276;28;20033;-96
2021/06/07 01:45:28;;;;;;;19.13;15.65;;;18.00;1.00;;;;;;5040123;28;20032;-96
2021/06/07 01:47:56;;;;;;;22.52;15.63;;;17.90;1.00;;;;;;5055061;28;20048;-96
2021/06/07 01:50:21;;;;;;;19.10;15.18;;;17.80;1.00;;;;;;5015019;28;20025;-96
2021/06/07 01:52:49;;;;;;;19.10;15.27;;;17.90;1.00;;;;;;5027876;28;20344;-96
2021/06/07 01:55:16;;;;;;;20.80;15.73;;;17.80;1.00;;;;;;5061348;28;20408;-96
2021/06/07 01:57:43;;;;;;;20.05;15.65;;;17.80;1.00;;;;;;5043884;28;20104;-96
2021/06/07 02:00:34;;;;;;;22.27;15.52;;;17.90;1.00;;;;;;5035932;28;20100;-96
2021/06/07 02:03:00;;;;;;;20.40;16.02;;;17.80;1.00;;;;;;5048334;28;20124;-96
2021/06/07 02:05:29;;;;;;;20.77;16.20;;;17.90;1.00;;;;;;5061540;28;20051;-96
2021/06/07 02:07:58;;;;;;;24.20;16.65;;;17.90;1.00;;;;;;5060421;28;20033;-96
2021/06/07 02:10:30;;;;;;;20.83;16.42;;;17.80;1.00;;;;;;5060799;28;20067;-96
2021/06/07 02:12:56;;;;;;;21.13;16.45;;;17.80;1.00;;;;;;5024593;28;20038;-96
2021/06/07 02:15:22;;;;;;;23.33;16.60;;;17.60;1.00;;;;;;5031204;28;20056;-96
2021/06/07 02:17:48;;;;;;;21.45;16.25;;;17.60;1.00;;;;;;5026499;28;20028;-96
2021/06/07 02:20:18;;;;;;;21.10;16.23;;;17.70;1.00;;;;;;5059879;28;20067;-96
2021/06/07 02:22:45;;;;;;;22.25;16.23;;;17.70;1.00;;;;;;5042330;28;20032;-96
2021/06/07 02:25:17;;;;;;;21.55;16.05;;;17.60;1.00;;;;;;5042101;28;20079;-96
2021/06/07 02:27:44;;;;;;;23.80;15.43;;;17.60;1.00;;;;;;5046089;28;20056;-96
2021/06/07 02:30:15;;;;;;;19.95;15.48;;;17.60;1.00;;;;;;5047043;28;20108;-96
2021/06/07 02:32:40;;;;;;;21.23;17.00;;;17.80;1.00;;;;;;5047382;28;20431;-96
2021/06/07 02:35:09;;;;;;;19.90;15.98;;;17.70;1.00;;;;;;5026454;28;20024;-96
2021/06/07 02:37:36;;;;;;;20.70;16.40;;;17.80;1.00;;;;;;5024994;28;20120;-96
2021/06/07 02:40:05;;;;;;;25.40;16.88;;;17.70;1.00;;;;;;5024947;28;20031;-96
2021/06/07 02:42:31;;;;;;;23.50;16.25;;;17.70;1.00;;;;;;5040903;28;20505;-96
2021/06/07 02:44:57;;;;;;;20.75;16.00;;;17.70;1.00;;;;;;5040775;28;20496;-96
2021/06/07 02:47:22;;;;;;;22.30;16.65;;;17.70;1.00;;;;;;5038087;28;20037;-96
2021/06/07 02:49:48;;;;;;;21.00;16.77;;;17.60;1.00;;;;;;5041228;28;20032;-96
2021/06/07 02:52:14;;;;;;;22.98;16.67;;;17.70;1.00;;;;;;5058920;28;20492;-96
2021/06/07 02:54:39;;;;;;;22.20;15.68;;;17.70;1.00;;;;;;5015095;28;20498;-96
2021/06/07 02:57:06;;;;;;;23.45;17.00;;;17.60;1.00;;;;;;5031325;28;20111;-96
2021/06/07 02:59:32;;;;;;;22.67;17.02;;;17.70;1.00;;;;;;5033811;28;20037;-96
2021/06/07 03:01:57;;;;;;;21.90;16.38;;;17.80;1.00;;;;;;5040387;28;20114;-96
2021/06/07 03:04:23;;;;;;;23.00;16.55;;;17.80;1.00;;;;;;5024239;28;20029;-96
2021/06/07 03:06:49;;;;;;;23.00;17.45;;;17.70;1.00;;;;;;5042142;28;20104;-96
2021/06/07 03:09:14;;;;;;;22.13;17.10;;;17.80;1.00;;;;;;5051760;28;20128;-96
2021/06/07 03:11:40;;;;;;;20.23;15.57;;;17.80;1.00;;;;;;5038800;28;20084;-96
2021/06/07 03:14:06;;;;;;;20.92;15.65;;;17.80;1.00;;;;;;5021189;28;20112;-96
2021/06/07 03:16:31;;;;;;;23.23;17.40;;;17.70;1.00;;;;;;5038170;28;20033;-96
2021/06/07 03:18:57;;;;;;;23.40;17.38;;;17.80;1.00;;;;;;5041191;28;20022;-96
2021/06/07 03:21:23;;;;;;;26.27;17.23;;;17.60;1.00;;;;;;5046025;28;20049;-96
2021/06/07 03:23:49;;;;;;;22.95;17.05;;;17.60;1.00;;;;;;5046929;28;20051;-96
2021/06/07 03:26:14;;;;;;;24.75;17.45;;;17.60;1.00;;;;;;5043202;28;20447;-96
2021/06/07 03:28:40;;;;;;;24.63;17.25;;;17.70;1.00;;;;;;5037984;28;20025;-96
2021/06/07 03:31:08;;;;;;;21.10;16.67;;;17.70;1.00;;;;;;5036022;28;20119;-96
2021/06/07 03:33:34;;;;;;;23.83;17.38;;;17.80;1.00;;;;;;5030914;28;20424;-96
2021/06/07 03:35:59;;;;;;;21.30;16.48;;;17.70;1.00;;;;;;5025376;28;20059;-96
2021/06/07 03:38:28;;;;;;;23.83;16.75;;;17.50;1.00;;;;;;5039147;28;20025;-96
2021/06/07 03:40:55;;;;;;;24.98;17.02;;;17.60;1.00;;;;;;5006653;28;20041;-96
2021/06/07 03:43:30;;;;;;;21.50;16.88;;;17.70;1.00;;;;;;5038163;28;20474;-96
2021/06/07 03:45:57;;;;;;;24.17;17.42;;;17.70;1.00;;;;;;5054584;28;20082;-96
2021/06/07 03:48:23;;;;;;;22.77;17.63;;;17.70;1.00;;;;;;5038376;28;20504;-96
2021/06/07 03:50:50;;;;;;;23.45;16.85;;;17.70;1.00;;;;;;5034828;28;20044;-96
2021/06/07 03:53:15;;;;;;;24.17;17.98;;;17.60;1.00;;;;;;5021542;28;20031;-96
2021/06/07 03:55:42;;;;;;;27.17;18.48;;;17.50;1.00;;;;;;5053833;28;20119;-96
2021/06/07 03:58:07;;;;;;;23.80;16.73;;;17.50;1.00;;;;;;5019291;28;20055;-96
2021/06/07 04:00:36;;;;;;;24.25;17.10;;;17.40;1.00;;;;;;5025682;28;20026;-96
2021/06/07 04:03:05;;;;;;;23.17;17.08;;;17.40;1.00;;;;;;5044224;28;20163;-96
2021/06/07 04:05:32;;;;;;;26.17;17.23;;;17.50;1.00;;;;;;5038257;28;20033;-96
2021/06/07 04:07:58;;;;;;;23.52;16.55;;;17.50;1.00;;;;;;5055974;28;20043;-96
2021/06/07 04:10:26;;;;;;;22.67;16.50;;;17.40;1.00;;;;;;5018939;28;20129;-96
2021/06/07 04:12:52;;;;;;;23.05;16.60;;;17.30;1.00;;;;;;5019895;28;20406;-96
2021/06/07 04:15:20;;;;;;;23.65;17.05;;;17.40;1.00;;;;;;5020251;28;20026;-96
2021/06/07 04:17:47;;;;;;;21.88;16.00;;;17.30;1.00;;;;;;5021860;28;20036;-96
2021/06/07 04:20:15;;;;;;;19.50;15.15;;;17.30;1.00;;;;;;5033927;28;20025;-96
2021/06/07 04:22:43;;;;;;;22.73;16.08;;;17.40;1.00;;;;;;5035281;28;20033;-96
2021/06/07 04:25:10;;;;;;;19.73;15.57;;;17.40;1.00;;;;;;5021367;28;20057;-96
2021/06/07 04:27:38;;;;;;;20.95;16.17;;;17.40;1.00;;;;;;5023836;28;20033;-96
2021/06/07 04:30:12;;;;;;;19.15;15.07;;;17.50;1.00;;;;;;5034952;28;20053;-96
2021/06/07 04:32:39;;;;;;;22.45;15.80;;;17.50;1.00;;;;;;5034042;28;20026;-96
2021/06/07 04:35:06;;;;;;;18.73;15.45;;;17.50;1.00;;;;;;5036946;28;20059;-96
2021/06/07 04:37:32;;;;;;;22.00;16.77;;;17.50;1.00;;;;;;5036940;28;20044;-96
2021/06/07 04:39:58;;;;;;;22.20;15.73;;;17.60;1.00;;;;;;5035284;28;20025;-96
2021/06/07 04:42:23;;;;;;;20.58;15.07;;;17.50;1.00;;;;;;5035343;28;20032;-96
2021/06/07 04:44:50;;;;;;;19.52;15.13;;;17.50;1.00;;;;;;5026310;28;20490;-96
2021/06/07 04:47:15;;;;;;;19.65;15.30;;;17.50;1.00;;;;;;5022042;28;20041;-96
2021/06/07 04:49:41;;;;;;;23.25;15.40;;;17.80;1.00;;;;;;5034978;28;20017;-96
2021/06/07 04:52:07;;;;;;;19.15;15.75;;;17.60;1.00;;;;;;5035818;28;20037;-96
2021/06/07 04:54:32;;;;;;;23.02;16.35;;;17.60;1.00;;;;;;5034838;28;20025;-96
2021/06/07 04:56:58;;;;;;;23.55;16.50;;;17.60;1.00;;;;;;5035263;28;20030;-96
2021/06/07 04:59:24;;;;;;;22.60;15.30;;;17.60;1.00;;;;;;5035305;28;20041;-96
2021/06/07 05:01:49;;;;;;;24.25;16.67;;;17.60;1.00;;;;;;5034677;28;20022;-96
2021/06/07 05:04:15;;;;;;;21.27;15.32;;;17.60;1.00;;;;;;5034868;28;20070;-96
2021/06/07 05:06:40;;;;;;;20.50;15.35;;;17.40;1.00;;;;;;5035025;28;20063;-96
2021/06/07 05:09:06;;;;;;;21.17;15.30;;;17.40;1.00;;;;;;5034472;28;20044;-96
2021/06/07 05:11:32;;;;;;;20.48;15.05;;;17.40;1.00;;;;;;5034189;28;20114;-96
2021/06/07 05:13:57;;;;;;;19.02;15.35;;;17.40;1.00;;;;;;5035765;28;20049;-96
2021/06/07 05:16:23;;;;;;;19.80;15.20;;;17.40;1.00;;;;;;5034283;28;20022;-96
2021/06/07 05:18:49;;;;;;;20.77;15.45;;;17.40;1.00;;;;;;5034033;28;20043;-96
2021/06/07 05:21:15;;;;;;;19.85;14.65;;;17.50;1.00;;;;;;5034484;28;20116;-96
2021/06/07 05:23:40;;;;;;;20.77;15.15;;;17.50;1.00;;;;;;5035399;28;20079;-96
2021/06/07 05:26:06;;;;;;;20.52;15.15;;;17.50;1.00;;;;;;5034281;28;20072;-96
2021/06/07 05:28:31;;;;;;;18.55;14.60;;;17.40;1.00;;;;;;5033756;28;20115;-96
2021/06/07 05:30:57;;;;;;;18.40;14.63;;;17.40;1.00;;;;;;5033942;28;20021;-96
2021/06/07 05:33:24;;;;;;;17.13;13.65;;;17.40;1.00;;;;;;5034288;28;20025;-96
2021/06/07 05:35:50;;;;;;;22.40;14.32;;;17.50;1.00;;;;;;5034275;28;20498;-96
2021/06/07 05:38:17;;;;;;;15.70;13.02;;;17.60;1.00;;;;;;5034068;28;20036;-96
2021/06/07 05:40:44;;;;;;;19.48;13.40;;;17.70;1.00;;;;;;5035321;28;20022;-96
2021/06/07 05:43:10;;;;;;;16.23;13.20;;;17.70;1.00;;;;;;5035106;28;20025;-96
2021/06/07 05:45:36;;;;;;;16.90;13.00;;;17.60;1.00;;;;;;5035149;28;20029;-96
2021/06/07 05:48:02;;;;;;;16.33;13.07;;;17.70;1.00;;;;;;5035730;28;20037;-96
2021/06/07 05:50:32;;;;;;;16.02;12.93;;;17.50;1.00;;;;;;5034639;28;20037;-96
2021/06/07 05:52:58;;;;;;;16.58;12.77;;;17.60;1.00;;;;;;5031710;28;20030;-96
2021/06/07 05:55:30;;;;;;;16.10;12.85;;;17.50;1.00;;;;;;5034485;28;20022;-96
2021/06/07 05:58:00;;;;;;;15.32;12.85;;;17.60;1.00;;;;;;5034493;28;20053;-96
2021/06/07 06:00:28;;;;;;;17.55;13.48;;;17.60;1.00;;;;;;5034980;28;20040;-96
2021/06/07 06:02:54;;;;;;;16.55;12.85;;;17.80;1.00;;;;;;5035385;28;20029;-96
2021/06/07 06:05:20;;;;;;;14.80;13.20;;;17.60;1.00;;;;;;5034359;28;20059;-96
2021/06/07 06:07:46;;;;;;;15.27;12.55;;;17.40;1.00;;;;;;5031465;28;20481;-95
2021/06/07 06:10:14;;;;;;;17.35;12.50;;;17.50;1.00;;;;;;5016343;28;20050;-93
2021/06/07 06:12:39;;;;;;;18.67;13.27;;;17.50;1.00;;;;;;5017392;28;20498;-94
2021/06/07 06:15:08;;;;;;;16.13;12.55;;;17.60;1.00;;;;;;5020928;28;20033;-96
2021/06/07 06:17:34;;;;;;;16.67;13.00;;;17.50;1.00;;;;;;5029792;28;20040;-95
2021/06/07 06:19:59;;;;;;;16.42;13.27;;;17.40;1.00;;;;;;5029102;28;20018;-94
2021/06/07 06:22:25;;;;;;;18.35;13.27;;;17.40;1.00;;;;;;5032747;28;20036;-95
2021/06/07 06:24:52;;;;;;;19.35;13.80;;;17.50;1.00;;;;;;5020338;28;20034;-96
2021/06/07 06:27:18;;;;;;;18.73;14.15;;;17.60;1.00;;;;;;5028817;28;20037;-96
2021/06/07 06:29:44;;;;;;;17.98;13.55;;;17.90;1.00;;;;;;5030035;28;20026;-94
2021/06/07 06:32:11;;;;;;;16.33;13.27;;;17.70;1.00;;;;;;5014681;28;20029;-93
2021/06/07 06:34:39;;;;;;;18.80;14.57;;;17.90;1.00;;;;;;5016867;28;20092;-93
2021/06/07 06:37:05;;;;;;;18.60;15.13;;;17.70;1.00;;;;;;5031246;28;20109;-92
2021/06/07 06:39:31;;;;;;;19.00;14.95;;;17.70;1.00;;;;;;5022802;28;20026;-91
2021/06/07 06:41:56;;;;;;;19.85;15.27;;;17.90;1.00;;;;;;5019497;28;20103;-91
2021/06/07 06:44:22;;;;;;;19.38;14.88;;;17.80;1.00;;;;;;5017748;28;20048;-92
2021/06/07 06:46:48;;;;;;;18.55;14.70;;;17.80;1.00;;;;;;5017013;28;20096;-93
2021/06/07 06:49:13;;;;;;;18.40;14.25;;;17.80;1.00;;;;;;5019001;28;20133;-92
2021/06/07 06:51:40;;;;;;;16.98;14.20;;;17.80;1.00;;;;;;5019969;28;20125;-92
2021/06/07 06:54:05;;;;;;;23.63;15.30;;;17.70;1.00;;;;;;5020591;28;20056;-92
2021/06/07 06:56:31;;;;;;;18.63;14.73;;;17.80;1.00;;;;;;5019876;28;20033;-92
2021/06/07 06:58:57;;;;;;;19.35;14.45;;;17.90;1.00;;;;;;5016081;28;20037;-92
2021/06/07 07:01:23;;;;;;;20.45;14.77;;;17.80;1.00;;;;;;5019205;28;20056;-92
2021/06/07 07:03:50;;;;;;;18.63;15.63;;;17.80;1.00;;;;;;5018410;28;20068;-92
2021/06/07 07:06:15;;;;;;;20.63;15.15;;;17.60;1.00;;;;;;5019911;28;20416;-91
2021/06/07 07:08:41;;;;;;;20.33;15.30;;;17.70;1.00;;;;;;5020327;28;20033;-92
2021/06/07 07:11:07;;;;;;;17.98;13.23;;;17.70;1.00;;;;;;5028692;28;20413;-92
2021/06/07 07:13:33;;;;;;;17.63;13.77;;;17.70;1.00;;;;;;5037722;28;20383;-93
2021/06/07 07:15:58;;;;;;;16.48;13.65;;;17.70;1.00;;;;;;5021860;28;20029;-93
2021/06/07 07:18:24;;;;;;;17.48;13.60;;;17.90;1.00;;;;;;5040116;28;20477;-93
2021/06/07 07:20:50;;;;;;;17.20;13.88;;;17.80;1.00;;;;;;5022748;28;20025;-92
2021/06/07 07:23:15;;;;;;;17.23;13.18;;;18.00;1.00;;;;;;5038203;28;20103;-94
2021/06/07 07:25:43;;;;;;;19.85;14.88;;;18.40;1.00;;;;;;5040420;28;20021;-94
2021/06/07 07:28:09;;;;;;;20.13;14.55;;;18.10;1.00;;;;;;5036480;28;20497;-93
2021/06/07 07:30:36;;;;;;;18.30;14.20;;;18.10;1.00;;;;;;5036439;28;20029;-80
2021/06/07 07:33:03;;;;;;;17.88;14.30;;;18.30;1.00;;;;;;5035804;28;20021;-83
2021/06/07 07:35:29;;;;;;;18.25;14.93;;;18.40;1.00;;;;;;5036026;28;20026;-88
2021/06/07 07:37:55;;;;;;;17.88;14.57;;;18.70;1.00;;;;;;5035713;28;20094;-86
2021/06/07 07:40:23;;;;;;;23.02;16.33;;;18.00;1.00;;;;;;5034231;28;20481;-90
2021/06/07 07:42:51;;;;;;;18.98;15.07;;;18.30;1.00;;;;;;5035447;28;20104;-86
2021/06/07 07:45:19;;;;;;;21.05;15.10;;;18.50;1.00;;;;;;5039592;28;20033;-82
2021/06/07 07:47:47;;;;;;;18.75;14.77;;;18.60;1.00;;;;;;5038182;28;20384;-93
2021/06/07 07:50:17;;;;;;;21.20;14.80;;;18.60;1.00;;;;;;5035564;28;20033;-82
2021/06/07 07:52:43;;;;;;;20.33;14.70;;;18.50;1.00;;;;;;5036614;28;20018;-82
2021/06/07 07:55:15;;;;;;;21.33;15.98;;;18.40;1.00;;;;;;5037648;28;20025;-82
2021/06/07 07:57:41;;;;;;;19.20;15.23;;;18.30;1.00;;;;;;5038487;28;20037;-81
2021/06/07 08:00:10;;;;;;;19.92;14.70;;;18.30;1.00;;;;;;5038156;28;20390;-84
2021/06/07 08:02:37;;;;;;;20.75;16.23;;;18.20;1.00;;;;;;5038424;28;20485;-85
2021/06/07 08:05:03;;;;;;;19.73;15.88;;;18.30;1.00;;;;;;5034003;28;20393;-85
2021/06/07 08:07:29;;;;;;;23.05;16.38;;;18.30;1.00;;;;;;5037587;28;20034;-83
2021/06/07 08:09:54;;;;;;;22.48;18.23;;;18.30;1.00;;;;;;5037439;28;20568;-82
2021/06/07 08:12:20;;;;;;;19.23;16.15;;;18.40;1.00;;;;;;5038335;28;20030;-83
2021/06/07 08:14:46;;;;;;;21.05;16.65;;;18.40;1.00;;;;;;5037337;28;20029;-84
2021/06/07 08:17:11;;;;;;;22.20;15.98;;;18.60;1.00;;;;;;5034805;28;20022;-82
2021/06/07 08:19:37;;;;;;;19.77;16.10;;;18.40;1.00;;;;;;5035526;28;20036;-82
2021/06/07 08:22:03;;;;;;;19.85;16.23;;;18.30;1.00;;;;;;5038153;28;20096;-82
2021/06/07 08:24:29;;;;;;;22.40;16.00;;;18.30;1.00;;;;;;5037518;28;20120;-85
2021/06/07 08:26:55;;;;;;;20.13;16.38;;;18.50;1.00;;;;;;5038118;28;20085;-82
2021/06/07 08:29:21;;;;;;;22.65;16.65;;;18.80;1.00;;;;;;5036419;28;20034;-83
2021/06/07 08:31:46;;;;;;;21.33;16.15;;;18.90;1.00;;;;;;5035171;28;20382;-84
2021/06/07 08:34:12;;;;;;;19.75;16.00;;;18.90;1.00;;;;;;5037123;28;20082;-84
2021/06/07 08:36:37;;;;;;;20.58;14.23;;;18.80;1.00;;;;;;5017472;28;20025;-84
2021/06/07 08:39:06;;;;;;;20.85;15.55;;;18.80;1.00;;;;;;5034375;28;20401;-84
2021/06/07 08:41:32;;;;;;;18.20;14.95;;;19.00;1.00;;;;;;5034298;28;20032;-84
2021/06/07 08:43:58;;;;;;;18.33;15.10;;;19.00;1.00;;;;;;5034068;28;20405;-84
2021/06/07 08:46:24;;;;;;;21.33;15.73;;;18.90;1.00;;;;;;5032789;28;20026;-82
2021/06/07 08:48:49;;;;;;;34.80;28.98;;;19.00;1.00;;;;;;5034361;28;20041;-82
2021/06/07 08:51:15;;;;;;;28.80;17.23;;;19.00;1.00;;;;;;5034892;28;20504;-82
2021/06/07 08:53:41;;;;;;;20.25;15.00;;;19.00;1.00;;;;;;5034519;28;20412;-82
2021/06/07 08:56:06;;;;;;;18.30;14.98;;;19.00;1.00;;;;;;5034310;28;20036;-82
2021/06/07 08:58:32;;;;;;;18.70;15.02;;;19.00;1.00;;;;;;5031957;28;20030;-82
2021/06/07 09:00:59;;;;;;;20.38;15.88;;;19.00;1.00;;;;;;5038105;28;20028;-82
2021/06/07 09:03:33;;;;;;;16.83;14.45;;;18.70;1.00;;;;;;5037134;28;20160;-82
2021/06/07 09:06:00;;;;;;;17.88;15.02;;;18.90;1.00;;;;;;5037199;28;20112;-82
2021/06/07 09:08:31;;;;;;;21.25;16.52;;;19.00;1.00;;;;;;5034782;28;20128;-82
2021/06/07 09:10:57;;;;;;;18.65;14.30;;;18.90;1.00;;;;;;5033326;28;20049;-82
2021/06/07 09:13:27;;;;;;;17.90;15.02;;;18.90;1.00;;;;;;5033109;28;20029;-82
2021/06/07 09:15:55;;;;;;;18.50;14.82;;;18.90;1.00;;;;;;5034611;28;20030;-82
2021/06/07 09:18:32;;;;;;;18.75;15.40;;;18.90;1.00;;;;;;5034223;28;20056;-82
2021/06/07 09:20:59;;;;;;;21.65;15.43;;;19.00;1.00;;;;;;5034199;28;20584;-81
2021/06/07 09:23:38;;;;;;;17.88;14.73;;;18.90;1.00;;;;;;5034399;28;20033;-82
2021/06/07 09:26:04;;;;;;;16.70;14.63;;;18.90;1.00;;;;;;5034056;28;20036;-82
2021/06/07 09:28:29;;;;;;;17.13;13.80;;;19.00;1.00;;;;;;5032318;28;20037;-82
2021/06/07 09:31:00;;;;;;;18.05;14.55;;;19.10;1.00;;;;;;5036853;28;20095;-82
2021/06/07 09:33:40;;;;;;;17.02;14.65;;;19.20;1.00;;;;;;5039601;28;20049;-82
2021/06/07 09:36:12;;;;;;;17.67;15.10;;;19.10;1.00;;;;;;5040638;28;20108;-81
2021/06/07 09:39:01;;;;;;;18.02;15.23;;;19.20;1.00;;;;;;5033317;28;20026;-82
2021/06/07 09:41:31;;;;;;;17.33;13.93;;;19.30;1.00;;;;;;5033945;28;20060;-82
2021/06/07 09:43:59;;;;;;;17.25;13.95;;;19.40;1.00;;;;;;5032996;28;20030;-82
2021/06/07 09:46:29;;;;;;;17.13;13.95;;;19.40;1.00;;;;;;5035946;28;20029;-81
2021/06/07 09:49:16;;;;;;;17.50;13.35;;;19.50;1.00;;;;;;5036624;28;20079;-83
2021/06/07 09:51:52;;;;;;;15.73;13.80;;;19.60;1.00;;;;;;5037135;28;20045;-84
2021/06/07 09:54:18;;;;;;;19.05;14.45;;;19.60;1.00;;;;;;5036547;28;20029;-84
2021/06/07 09:56:55;;;;;;;16.17;13.90;;;19.60;1.00;;;;;;5037217;28;20028;-84
2021/06/07 09:59:23;;;;;;;17.92;14.63;;;19.60;1.00;;;;;;5035520;28;20080;-85
2021/06/07 10:01:49;;;;;;;18.65;14.57;;;19.40;1.00;;;;;;5033749;28;20065;-84
2021/06/07 10:04:15;;;;;;;18.58;14.52;;;19.40;1.00;;;;;;5036128;28;20127;-84
2021/06/07 10:06:41;;;;;;;16.73;14.73;;;19.40;1.00;;;;;;5036157;28;20523;-85
2021/06/07 10:09:08;;;;;;;18.90;15.23;;;19.50;1.00;;;;;;5038853;28;20112;-85
2021/06/07 10:11:49;;;;;;;16.52;14.27;;;19.70;1.00;;;;;;5040622;28;20128;-84
2021/06/07 10:14:19;;;;;;;15.90;14.18;;;19.80;1.00;;;;;;5037244;28;20029;-84
2021/06/07 10:16:54;;;;;;;16.17;14.13;;;19.90;1.00;;;;;;5034791;28;20129;-94
2021/06/07 10:19:30;;;;;;;16.77;14.23;;;19.90;1.00;;;;;;5039272;28;20489;-91
2021/06/07 10:21:56;;;;;;;17.33;13.32;;;19.90;1.00;;;;;;5039519;28;20060;-90
2021/06/07 10:24:22;;;;;;;16.10;14.40;;;19.70;1.00;;;;;;5040643;28;20119;-91
2021/06/07 10:26:47;;;;;;;15.68;13.80;;;19.60;1.00;;;;;;5040843;28;20051;-94
2021/06/07 10:29:13;;;;;;;17.65;13.45;;;19.80;1.00;;;;;;5020161;28;20416;-95
2021/06/07 10:31:40;;;;;;;16.05;13.10;;;19.80;1.00;;;;;;5036654;28;20116;-91
2021/06/07 10:34:08;;;;;;;17.60;14.27;;;20.00;1.00;;;;;;5036978;28;20052;-92
2021/06/07 10:36:50;;;;;;;16.73;14.25;;;20.10;1.00;;;;;;5037413;28;20037;-93
2021/06/07 10:39:19;;;;;;;15.65;14.05;;;20.00;1.00;;;;;;5037233;28;20037;-84
2021/06/07 10:41:58;;;;;;;15.45;13.68;;;20.20;1.00;;;;;;5037173;28;20080;-92
2021/06/07 10:44:35;;;;;;;15.85;13.52;;;20.20;1.00;;;;;;5037421;28;20026;-94
2021/06/07 10:47:07;;;;;;;14.80;13.00;;;20.20;1.00;;;;;;5037283;28;20056;-96
2021/06/07 10:49:58;;;;;;;13.82;12.20;;;20.20;1.00;;;;;;5049745;28;20409;-94
2021/06/07 10:52:27;;;;;;;14.45;12.82;;;20.40;1.00;;;;;;5021189;28;20057;-85
2021/06/07 10:55:03;;;;;;;13.43;11.07;;;20.60;1.00;;;;;;5039435;28;20034;-86
2021/06/07 10:57:54;;;;;;;14.65;12.32;;;20.80;1.00;;;;;;5039760;28;20040;-85
2021/06/07 11:00:24;;;;;;;14.10;12.57;;;20.80;1.00;;;;;;5038777;28;20033;-85
2021/06/07 11:02:53;;;;;;;14.85;13.32;;;21.00;1.00;;;;;;5026848;28;20397;-88
2021/06/07 11:05:19;;;;;;;14.35;11.73;;;21.30;1.00;;;;;;5050166;28;20112;-88
2021/06/07 11:07:58;;;;;;;13.70;12.25;;;21.30;1.00;;;;;;5034183;28;20139;-87
2021/06/07 11:10:41;;;;;;;13.05;11.68;;;21.40;1.00;;;;;;5053774;28;20435;-90
2021/06/07 11:13:08;;;;;;;13.07;11.77;;;21.50;1.00;;;;;;5036009;28;20363;-85
2021/06/07 11:15:50;;;;;;;13.40;12.00;;;21.70;1.00;;;;;;5037172;28;20064;-82
2021/06/07 11:18:37;;;;;;;15.60;12.13;;;21.50;1.00;;;;;;5039017;28;20033;-85
2021/06/07 11:21:08;;;;;;;13.20;11.80;;;21.20;1.00;;;;;;5038972;28;20502;-84
2021/06/07 11:23:39;;;;;;;15.43;12.40;;;21.30;1.00;;;;;;5039224;28;20033;-85
2021/06/07 11:26:10;;;;;;;14.00;12.43;;;21.60;1.00;;;;;;5035374;28;20032;-82
2021/06/07 11:28:39;;;;;;;14.25;12.23;;;21.50;1.00;;;;;;5036598;28;20112;-82
2021/06/07 11:31:27;;;;;;;15.25;12.73;;;21.60;1.00;;;;;;5035894;28;20501;-84
2021/06/07 11:33:56;;;;;;;15.18;12.65;;;21.90;1.00;;;;;;5035475;28;20449;-83
2021/06/07 11:36:40;;;;;;;14.05;12.60;;;21.80;1.00;;;;;;5035912;28;20026;-83
2021/06/07 11:39:12;;;;;;;15.15;13.63;;;21.30;1.00;;;;;;5036136;28;20025;-82
2021/06/07 11:41:56;;;;;;;14.75;12.98;;;21.20;1.00;;;;;;5039101;28;20124;-83
2021/06/07 11:44:42;;;;;;;16.90;13.77;;;21.20;1.00;;;;;;5037339;28;20906;-83
2021/06/07 11:47:09;;;;;;;15.07;13.38;;;21.20;1.00;;;;;;5018945;28;20496;-83
2021/06/07 11:49:36;;;;;;;14.43;13.02;;;21.30;1.00;;;;;;5036505;28;20083;-83
2021/06/07 11:52:08;;;;;;;15.68;12.68;;;21.50;1.00;;;;;;5020390;28;20049;-83
2021/06/07 11:54:34;;;;;;;14.27;12.68;;;21.60;1.00;;;;;;5038861;28;20449;-83
2021/06/07 11:57:01;;;;;;;14.60;13.10;;;21.90;1.00;;;;;;5037987;28;20113;-83
2021/06/07 11:59:32;;;;;;;14.50;13.02;;;21.90;1.00;;;;;;5037885;28;20087;-83
2021/06/07 12:01:59;;;;;;;16.75;13.60;;;22.50;1.00;;;;;;5033658;28;20928;-82
2021/06/07 12:04:27;;;;;;;14.38;12.88;;;22.80;1.00;;;;;;5037967;28;20029;-83
2021/06/07 12:07:08;;;;;;;14.32;12.82;;;22.70;99.90;;;;;;5038761;28;20040;-83
2021/06/07 12:09:36;;;;;;;14.95;12.15;;;23.00;99.90;;;;;;5038337;28;20103;-83
2021/06/07 12:12:03;;;;;;;16.17;13.35;;;23.60;99.90;;;;;;5037994;28;20034;-83
2021/06/07 12:14:36;;;;;;;16.30;13.88;;;23.60;99.90;;;;;;5037324;28;20033;-83
2021/06/07 12:17:25;;;;;;;13.82;12.40;;;23.90;99.90;;;;;;5035188;28;20064;-83
2021/06/07 12:20:00;;;;;;;16.80;12.88;;;23.90;99.90;;;;;;5034462;28;20033;-83
2021/06/07 12:22:28;;;;;;;15.07;13.48;;;23.50;99.90;;;;;;5037095;28;20103;-82
2021/06/07 12:30:27;;;;;;;13.65;12.25;;;24.70;99.90;;;;;;5037366;28;20088;-83
2021/06/07 12:32:54;;;;;;;14.52;12.13;;;24.50;99.90;;;;;;5037486;28;20032;-83
2021/06/07 12:35:21;;;;;;;15.45;13.75;;;24.40;99.90;;;;;;5036352;28;20037;-83
2021/06/07 12:37:51;;;;;;;14.85;13.23;;;23.90;99.90;;;;;;5035382;28;20108;-84
2021/06/07 12:40:24;;;;;;;14.65;13.15;;;23.50;99.90;;;;;;5037014;28;20024;-83
2021/06/07 12:43:16;;;;;;;14.73;13.23;;;23.00;99.90;;;;;;5037549;28;20397;-82
2021/06/07 12:45:51;;;;;;;13.88;12.50;;;22.80;99.90;;;;;;5028420;28;20374;-83
2021/06/07 12:48:25;;;;;;;14.73;13.23;;;22.60;99.90;;;;;;5037218;28;20041;-83